Time;durP1;ratioP1;P1;durP2;ratioP2;P2;SDS_P1;SDS_P2;PMS_P1;PMS_P2;Temp;Humidity;BMP_temperature;BMP_pressure;BME280_temperature;BME280_humidity;BME280_pressure;Samples;Min_cycle;Max_cycle;Signal;HPM_P1;HPM_P2
2021/06/26 00:00:23;;;;;;;15.13;13.77;;;;;;;17.70;79.97;100965.56;4908122;28;97819;-78
2021/06/26 00:02:49;;;;;;;14.85;13.55;;;;;;;17.75;79.75;100970.94;4897899;28;100455;-71
2021/06/26 00:05:15;;;;;;;16.23;14.73;;;;;;;17.44;80.46;100976.16;4886309;28;127377;-78
2021/06/26 00:07:41;;;;;;;16.33;14.68;;;;;;;17.43;80.54;100974.53;4882036;28;122180;-78
2021/06/26 00:10:08;;;;;;;16.45;14.93;;;;;;;17.49;80.74;100972.50;4912569;28;123497;-71
2021/06/26 00:12:34;;;;;;;15.60;14.00;;;;;;;17.43;80.85;100978.06;4918284;28;97840;-78
2021/06/26 00:15:01;;;;;;;16.15;14.55;;;;;;;17.47;80.74;100975.56;4919340;28;111852;-78
2021/06/26 00:17:27;;;;;;;17.02;15.32;;;;;;;17.31;81.18;100977.75;4920076;28;110300;-71
2021/06/26 00:19:54;;;;;;;16.95;15.15;;;;;;;17.23;81.75;100981.16;4917991;28;127801;-71
2021/06/26 00:22:20;;;;;;;15.65;13.75;;;;;;;17.47;80.90;100974.75;4921750;28;98972;-78
2021/06/26 00:24:46;;;;;;;17.15;15.43;;;;;;;17.27;81.06;100971.28;4918534;28;127507;-71
2021/06/26 00:27:12;;;;;;;16.42;14.82;;;;;;;17.12;82.16;100972.34;4922560;28;97657;-71
2021/06/26 00:29:38;;;;;;;17.33;14.85;;;;;;;17.35;81.36;100976.03;4898467;28;127376;-78
2021/06/26 00:32:05;;;;;;;17.13;14.93;;;;;;;17.33;81.30;100981.00;4900589;28;127324;-71
2021/06/26 00:34:31;;;;;;;17.55;15.95;;;;;;;17.00;82.49;100980.19;4902892;28;98100;-78
2021/06/26 00:36:57;;;;;;;17.02;15.30;;;;;;;17.31;81.64;100980.47;4903570;28;97775;-71
2021/06/26 00:39:23;;;;;;;16.95;15.35;;;;;;;17.28;81.54;100978.34;4898968;28;128175;-77
2021/06/26 00:41:49;;;;;;;16.30;14.65;;;;;;;17.35;81.27;100977.97;4900892;28;98077;-78
2021/06/26 00:44:15;;;;;;;16.50;14.95;;;;;;;17.38;81.18;100996.44;4904744;28;127638;-78
2021/06/26 00:46:41;;;;;;;16.35;14.65;;;;;;;17.40;81.12;100988.75;4920804;28;121864;-71
2021/06/26 00:49:07;;;;;;;16.92;15.23;;;;;;;17.46;81.08;101000.38;4902466;28;121591;-77
2021/06/26 00:51:34;;;;;;;16.38;14.77;;;;;;;17.46;80.92;101003.91;4900476;28;99054;-71
2021/06/26 00:54:00;;;;;;;15.63;14.13;;;;;;;17.42;81.62;101005.63;4899925;28;98709;-77
2021/06/26 00:56:26;;;;;;;17.92;16.02;;;;;;;17.26;81.68;100998.84;4901943;28;122609;-78
2021/06/26 00:58:53;;;;;;;17.00;15.30;;;;;;;17.40;81.24;100994.22;4903654;28;103497;-78
2021/06/26 01:01:19;;;;;;;18.92;17.02;;;;;;;17.22;81.90;100997.81;4901498;28;98922;-78
2021/06/26 01:03:45;;;;;;;17.52;15.73;;;;;;;17.27;81.84;101011.34;4894634;28;127034;-71
2021/06/26 01:06:13;;;;;;;18.65;16.80;;;;;;;17.12;82.10;101006.97;4910763;28;97712;-77
2021/06/26 01:08:39;;;;;;;17.52;15.68;;;;;;;17.09;82.44;101007.53;4901151;28;112302;-71
2021/06/26 01:11:06;;;;;;;19.98;17.90;;;;;;;16.91;83.15;101004.56;4901301;28;128091;-78
2021/06/26 01:13:32;;;;;;;20.48;17.02;;;;;;;16.90;83.34;100997.53;4899927;28;106691;-78
2021/06/26 01:15:58;;;;;;;18.70;16.63;;;;;;;16.84;83.51;100995.97;4912625;28;98023;-78
2021/06/26 01:18:24;;;;;;;18.17;16.35;;;;;;;16.96;83.24;101000.94;4918896;28;125754;-77
2021/06/26 01:20:51;;;;;;;18.80;16.90;;;;;;;16.85;83.51;100999.50;4881832;28;120304;-77
2021/06/26 01:23:24;;;;;;;21.75;19.52;;;;;;;16.80;83.72;100994.94;4871194;28;106880;-71
2021/06/26 01:25:50;;;;;;;20.00;17.95;;;;;;;16.91;83.39;100998.31;4902666;28;98571;-78
2021/06/26 01:28:16;;;;;;;20.90;18.67;;;;;;;16.94;83.42;100995.00;4921095;28;98688;-78
2021/06/26 01:30:42;;;;;;;18.75;16.98;;;;;;;16.88;83.67;100999.72;4890331;28;100463;-77
2021/06/26 01:33:08;;;;;;;18.48;16.63;;;;;;;16.76;84.18;100996.63;4883087;28;124743;-71
2021/06/26 01:35:34;;;;;;;19.25;17.30;;;;;;;16.83;83.49;100999.00;4867216;28;122466;-77
2021/06/26 01:38:03;;;;;;;19.50;17.50;;;;;;;16.76;83.90;101009.44;4883051;28;127427;-78
2021/06/26 01:40:30;;;;;;;21.27;18.00;;;;;;;16.86;83.29;101007.38;4899116;28;97948;-77
2021/06/26 01:42:56;;;;;;;20.23;18.33;;;;;;;16.88;83.24;101016.03;4867722;28;97954;-71
2021/06/26 01:45:22;;;;;;;19.02;17.13;;;;;;;16.96;83.43;101006.41;4903546;28;107064;-71
2021/06/26 01:47:50;;;;;;;19.65;17.55;;;;;;;16.79;83.87;101017.84;4900003;28;109819;-71
2021/06/26 01:50:17;;;;;;;20.02;17.85;;;;;;;16.78;83.63;101013.50;4901294;28;98886;-71
2021/06/26 01:52:44;;;;;;;19.58;17.58;;;;;;;16.83;83.46;101007.16;4901673;28;100027;-71
2021/06/26 01:55:12;;;;;;;18.13;16.33;;;;;;;16.91;83.19;101003.75;4901496;28;98086;-70
2021/06/26 01:57:41;;;;;;;17.75;15.90;;;;;;;17.00;83.20;101010.16;4902285;28;98448;-77
2021/06/26 02:00:08;;;;;;;20.02;17.92;;;;;;;16.89;83.08;101012.22;4899272;28;98526;-70
2021/06/26 02:02:34;;;;;;;19.50;16.83;;;;;;;17.08;82.69;101011.38;4901345;28;107164;-76
2021/06/26 02:05:00;;;;;;;19.60;16.88;;;;;;;17.08;82.56;101005.94;4898707;28;122798;-77
2021/06/26 02:07:26;;;;;;;18.45;16.52;;;;;;;17.12;82.38;101013.22;4896731;28;127445;-77
2021/06/26 02:09:52;;;;;;;17.77;15.98;;;;;;;17.16;82.35;101008.78;4903403;28;98766;-76
2021/06/26 02:12:18;;;;;;;20.20;16.65;;;;;;;17.03;82.69;101009.56;4905921;28;127793;-77
2021/06/26 02:14:44;;;;;;;19.83;17.83;;;;;;;17.00;82.71;101007.41;4884392;28;98091;-72
2021/06/26 02:17:10;;;;;;;19.92;17.88;;;;;;;16.93;82.88;101013.25;4866978;28;99049;-77
2021/06/26 02:19:36;;;;;;;19.75;17.77;;;;;;;16.97;82.77;101012.66;4900107;28;124405;-76
2021/06/26 02:22:03;;;;;;;19.88;17.77;;;;;;;17.04;82.44;101019.34;4900619;28;127622;-75
2021/06/26 02:24:29;;;;;;;21.10;18.30;;;;;;;16.92;82.88;101017.06;4898011;28;122773;-76
2021/06/26 02:26:55;;;;;;;19.15;17.23;;;;;;;17.07;82.49;101020.66;4901068;28;129412;-77
2021/06/26 02:29:21;;;;;;;18.17;16.27;;;;;;;17.10;82.41;101017.34;4899508;28;127889;-77
2021/06/26 02:31:47;;;;;;;18.05;16.25;;;;;;;17.16;82.36;101021.59;4899340;28;98244;-71
2021/06/26 02:34:15;;;;;;;19.70;17.60;;;;;;;17.14;82.17;101019.19;4900844;28;98006;-77
2021/06/26 02:36:41;;;;;;;18.33;16.60;;;;;;;17.21;82.14;101016.06;4900444;28;97848;-71
2021/06/26 02:39:07;;;;;;;18.70;16.83;;;;;;;17.26;82.09;101018.72;4866081;28;107127;-76
2021/06/26 02:41:33;;;;;;;18.40;16.63;;;;;;;17.19;82.35;101015.56;4898505;28;108776;-72
2021/06/26 02:43:59;;;;;;;20.95;18.85;;;;;;;17.07;82.21;101017.94;4906540;28;124139;-76
2021/06/26 02:46:25;;;;;;;19.95;17.58;;;;;;;16.90;82.79;101018.50;4917094;28;127983;-76
2021/06/26 02:48:52;;;;;;;20.42;18.27;;;;;;;17.02;82.40;101018.03;4918901;28;128340;-77
2021/06/26 02:51:18;;;;;;;19.75;17.35;;;;;;;17.11;82.39;101024.41;4917845;28;107911;-76
2021/06/26 02:53:44;;;;;;;19.95;18.00;;;;;;;17.18;82.19;101022.94;4877459;28;121781;-75
2021/06/26 02:56:10;;;;;;;18.25;16.27;;;;;;;17.11;81.96;101019.78;4916228;28;128329;-70
2021/06/26 02:58:36;;;;;;;18.05;16.15;;;;;;;17.18;82.36;101025.66;4901374;28;128772;-75
2021/06/26 03:01:02;;;;;;;17.98;16.17;;;;;;;17.23;82.11;101023.94;4901469;28;127422;-76
2021/06/26 03:03:28;;;;;;;17.92;16.23;;;;;;;17.15;82.47;101026.25;4869639;28;97814;-70
2021/06/26 03:05:54;;;;;;;18.23;16.35;;;;;;;17.19;81.93;101031.91;4918629;28;127963;-75
2021/06/26 03:08:20;;;;;;;20.08;16.77;;;;;;;17.20;81.90;101033.50;4905984;28;98776;-75
2021/06/26 03:10:46;;;;;;;17.88;16.23;;;;;;;17.10;81.71;101025.53;4900749;28;98044;-75
2021/06/26 03:13:13;;;;;;;20.58;18.02;;;;;;;16.89;82.55;101028.56;4882226;28;104153;-70
2021/06/26 03:15:39;;;;;;;19.98;17.88;;;;;;;17.00;82.51;101028.41;4900281;28;98383;-75
2021/06/26 03:18:05;;;;;;;21.98;17.92;;;;;;;16.85;82.83;101026.72;4900607;28;98746;-71
2021/06/26 03:20:31;;;;;;;21.02;18.75;;;;;;;16.89;82.78;101033.19;4899309;28;113260;-76
2021/06/26 03:22:57;;;;;;;20.13;17.88;;;;;;;17.01;82.80;101030.81;4882447;28;97972;-76
2021/06/26 03:25:23;;;;;;;20.70;18.63;;;;;;;16.84;83.36;101036.00;4900222;28;107241;-76
2021/06/26 03:27:49;;;;;;;23.70;20.55;;;;;;;16.76;83.53;101031.22;4899332;28;126299;-77
2021/06/26 03:30:16;;;;;;;22.92;20.10;;;;;;;16.75;83.73;101035.06;4899818;28;126567;-75
2021/06/26 03:32:42;;;;;;;19.92;17.85;;;;;;;16.91;83.41;101034.53;4898168;28;98154;-75
2021/06/26 03:35:09;;;;;;;24.38;19.30;;;;;;;16.94;83.34;101041.31;4897097;28;128501;-75
2021/06/26 03:37:35;;;;;;;23.52;18.95;;;;;;;16.96;83.11;101039.06;4900146;28;100049;-72
2021/06/26 03:40:01;;;;;;;20.95;18.08;;;;;;;17.14;82.60;101034.72;4898604;28;98610;-77
2021/06/26 03:42:27;;;;;;;22.80;18.30;;;;;;;17.11;82.54;101033.38;4904954;28;97933;-71
2021/06/26 03:44:53;;;;;;;21.15;17.88;;;;;;;17.18;82.23;101033.81;4919572;28;98771;-76
2021/06/26 03:47:19;;;;;;;21.05;18.25;;;;;;;17.26;82.29;101032.34;4894233;28;128137;-71
2021/06/26 03:49:45;;;;;;;20.65;17.10;;;;;;;17.36;81.86;101040.31;4899966;28;111805;-77
2021/06/26 03:52:11;;;;;;;21.48;17.38;;;;;;;17.29;81.97;101030.91;4922595;28;105941;-76
2021/06/26 03:54:37;;;;;;;20.13;17.85;;;;;;;17.31;82.13;101043.13;4919268;28;126693;-77
2021/06/26 03:57:04;;;;;;;21.08;17.13;;;;;;;17.10;82.60;101039.94;4904408;28;126280;-71
2021/06/26 03:59:30;;;;;;;20.55;18.35;;;;;;;17.12;82.42;101045.91;4901871;28;119309;-78
2021/06/26 04:01:56;;;;;;;21.58;18.35;;;;;;;17.05;82.52;101048.19;4920882;28;98241;-76
2021/06/26 04:04:22;;;;;;;27.60;19.73;;;;;;;17.00;82.75;101061.88;4885151;28;98557;-76
2021/06/26 04:06:48;;;;;;;20.67;16.60;;;;;;;17.03;83.22;101058.56;4900749;28;126798;-71
2021/06/26 04:09:14;;;;;;;21.35;16.50;;;;;;;17.05;82.71;101064.53;4901965;28;98049;-76
2021/06/26 04:11:40;;;;;;;18.80;15.18;;;;;;;17.18;82.42;101044.72;4903717;28;98067;-76
2021/06/26 04:14:06;;;;;;;18.95;14.18;;;;;;;17.21;81.81;101046.03;4919921;28;98165;-76
2021/06/26 04:16:32;;;;;;;17.30;13.57;;;;;;;17.30;81.66;101049.69;4921229;28;119139;-77
2021/06/26 04:18:59;;;;;;;18.52;14.32;;;;;;;17.35;81.64;101052.31;4901891;28;127302;-79
2021/06/26 04:21:25;;;;;;;21.02;14.43;;;;;;;17.34;81.65;101049.91;4869015;28;97944;-72
2021/06/26 04:23:51;;;;;;;18.27;13.55;;;;;;;17.47;81.20;101054.59;4884344;28;122726;-77
2021/06/26 04:26:17;;;;;;;18.38;13.68;;;;;;;17.57;80.61;101042.69;4868785;28;128278;-77
2021/06/26 04:28:43;;;;;;;22.63;14.10;;;;;;;17.61;80.74;101051.91;4901963;28;127715;-77
2021/06/26 04:31:09;;;;;;;20.40;13.73;;;;;;;17.64;79.97;101051.28;4884308;28;122711;-72
2021/06/26 04:33:35;;;;;;;15.40;13.15;;;;;;;17.53;80.23;101061.56;4867938;28;128005;-77
2021/06/26 04:36:01;;;;;;;20.88;13.60;;;;;;;17.50;80.33;101056.72;4886080;28;100330;-78
2021/06/26 04:38:27;;;;;;;21.10;14.05;;;;;;;17.39;81.01;101069.69;4904191;28;109709;-77
2021/06/26 04:40:54;;;;;;;18.63;12.48;;;;;;;17.67;80.20;101069.75;4903139;28;122768;-71
2021/06/26 04:43:20;;;;;;;17.13;12.63;;;;;;;17.85;79.26;101071.66;4902799;28;123286;-71
2021/06/26 04:45:47;;;;;;;17.65;12.27;;;;;;;17.95;78.88;101069.81;4912814;28;117672;-78
2021/06/26 04:48:16;;;;;;;17.67;12.75;;;;;;;17.74;79.36;101070.19;4900504;28;97831;-72
2021/06/26 04:50:42;;;;;;;18.10;11.98;;;;;;;18.06;78.66;101071.25;4901111;28;98244;-77
2021/06/26 04:53:08;;;;;;;17.73;11.73;;;;;;;18.08;78.00;101075.31;4901904;28;127773;-77
2021/06/26 04:55:34;;;;;;;16.55;12.40;;;;;;;18.10;77.95;101064.88;4911824;28;128356;-78
2021/06/26 04:58:00;;;;;;;16.38;12.02;;;;;;;18.25;77.53;101068.41;4919019;28;126991;-78
2021/06/26 05:00:27;;;;;;;19.33;12.20;;;;;;;18.39;77.27;101063.75;4920784;28;111935;-78
2021/06/26 05:02:53;;;;;;;15.13;12.20;;;;;;;18.29;77.28;101064.78;4887316;28;113763;-72
2021/06/26 05:05:19;;;;;;;17.13;11.90;;;;;;;18.58;76.76;101064.41;4902997;28;113226;-78
2021/06/26 05:07:45;;;;;;;17.50;11.40;;;;;;;18.54;76.68;101062.63;4925534;28;126072;-71
2021/06/26 05:10:11;;;;;;;17.95;11.32;;;;;;;18.81;75.96;101067.22;4912050;28;97759;-78
2021/06/26 05:12:44;;;;;;;17.85;11.73;;;;;;;18.87;75.68;101063.28;4901125;28;123723;-80
2021/06/26 05:15:11;;;;;;;18.98;11.82;;;;;;;18.92;75.40;101065.88;4901236;28;119904;-71
2021/06/26 05:17:37;;;;;;;17.65;11.40;;;;;;;18.86;75.56;101059.75;4900217;28;98456;-71
2021/06/26 05:20:04;;;;;;;18.08;12.45;;;;;;;18.62;76.12;101070.06;4901856;28;97804;-78
2021/06/26 05:22:31;;;;;;;16.92;12.10;;;;;;;18.99;75.28;101070.94;4865918;28;120045;-71
2021/06/26 05:24:57;;;;;;;17.20;11.77;;;;;;;19.08;75.07;101067.13;4912849;28;128040;-71
2021/06/26 05:27:23;;;;;;;19.05;12.05;;;;;;;18.68;75.83;101059.88;4917480;28;127348;-79
2021/06/26 05:29:49;;;;;;;20.13;11.65;;;;;;;18.73;75.47;101066.03;4915133;28;122263;-71
2021/06/26 05:32:15;;;;;;;16.10;11.60;;;;;;;19.13;74.42;101069.72;4918283;28;102653;-71
2021/06/26 05:34:41;;;;;;;17.98;11.63;;;;;;;19.32;74.25;101069.56;4916846;28;99339;-71
2021/06/26 05:37:07;;;;;;;17.73;12.10;;;;;;;19.28;74.06;101068.56;4892985;28;122605;-78
2021/06/26 05:39:33;;;;;;;16.38;11.13;;;;;;;19.80;72.27;101059.88;4916271;28;121100;-71
2021/06/26 05:41:59;;;;;;;15.05;11.52;;;;;;;19.78;71.74;101064.88;4917720;28;98018;-71
2021/06/26 05:44:25;;;;;;;18.73;11.75;;;;;;;19.76;71.48;101058.88;4914443;28;97939;-71
2021/06/26 05:46:52;;;;;;;17.40;11.80;;;;;;;19.68;71.62;101060.47;4913289;28;98871;-71
2021/06/26 05:49:18;;;;;;;17.75;11.38;;;;;;;20.33;69.61;101054.25;4915292;28;98274;-72
2021/06/26 05:51:44;;;;;;;14.82;10.60;;;;;;;20.87;67.85;101051.31;4898821;28;98808;-71
2021/06/26 05:54:10;;;;;;;16.48;10.32;;;;;;;21.97;64.00;101052.53;4916784;28;114087;-71
2021/06/26 05:56:36;;;;;;;12.82;9.90;;;;;;;22.45;63.39;101047.75;4909698;28;128381;-77
2021/06/26 05:59:02;;;;;;;15.95;10.45;;;;;;;24.19;56.96;101052.31;4914813;28;103536;-77
2021/06/26 06:01:29;;;;;;;15.95;10.30;;;;;;;24.88;54.10;101056.00;4892755;28;99896;-71
2021/06/26 06:03:55;;;;;;;12.05;9.80;;;;;;;25.99;50.80;101062.53;4917229;28;98433;-71
2021/06/26 06:06:21;;;;;;;16.20;9.43;;;;;;;26.31;49.81;101057.78;4915490;28;127665;-71
2021/06/26 06:08:47;;;;;;;10.90;9.57;;;;;;;25.66;50.85;101065.63;4917911;28;97730;-78
2021/06/26 06:11:13;;;;;;;13.15;9.57;;;;;;;24.63;53.41;101061.56;4898904;28;128002;-71
2021/06/26 06:13:39;;;;;;;13.65;9.43;;;;;;;24.48;54.77;101065.88;4881060;28;128057;-71
2021/06/26 06:16:06;;;;;;;12.90;10.05;;;;;;;24.04;56.13;101061.28;4913318;28;128162;-71
2021/06/26 06:18:32;;;;;;;13.30;11.00;;;;;;;25.35;52.22;101047.06;4899756;28;98084;-71
2021/06/26 06:20:58;;;;;;;15.27;11.30;;;;;;;26.03;50.54;101046.84;4914240;28;128245;-80
2021/06/26 06:23:24;;;;;;;12.85;10.95;;;;;;;25.66;51.10;101052.66;4914298;28;122179;-80
2021/06/26 06:25:50;;;;;;;15.20;12.13;;;;;;;24.77;52.54;101055.69;4913490;28;126706;-78
2021/06/26 06:28:16;;;;;;;15.98;11.85;;;;;;;24.15;55.57;101054.97;4917034;28;97980;-71
2021/06/26 06:30:42;;;;;;;13.80;11.20;;;;;;;22.99;59.21;101062.41;4895109;28;124412;-78
2021/06/26 06:33:08;;;;;;;13.98;11.52;;;;;;;23.09;58.89;101065.88;4894106;28;126608;-71
2021/06/26 06:35:34;;;;;;;14.82;12.15;;;;;;;22.46;60.84;101068.59;4912899;28;98164;-72
2021/06/26 06:38:00;;;;;;;14.95;11.90;;;;;;;22.18;60.65;101079.25;4914773;28;98047;-71
2021/06/26 06:40:26;;;;;;;17.05;12.82;;;;;;;22.20;61.61;101071.47;4899862;28;98876;-71
2021/06/26 06:42:53;;;;;;;14.70;11.90;;;;;;;21.62;61.93;101079.28;4914918;28;97866;-71
2021/06/26 06:45:20;;;;;;;14.95;12.00;;;;;;;21.87;61.70;101074.03;4915193;28;107639;-71
2021/06/26 06:47:46;;;;;;;14.60;12.77;;;;;;;21.95;61.10;101078.66;4917164;28;97678;-71
2021/06/26 06:50:12;;;;;;;14.25;12.40;;;;;;;21.97;60.45;101077.22;4879077;28;126655;-79
2021/06/26 06:52:38;;;;;;;14.90;12.27;;;;;;;21.52;61.85;101080.41;4910001;28;98233;-71
2021/06/26 06:55:05;;;;;;;13.35;11.88;;;;;;;22.06;61.47;101083.47;4899154;28;98188;-71
2021/06/26 06:57:32;;;;;;;13.77;12.38;;;;;;;22.35;59.60;101083.84;4896157;28;97847;-71
2021/06/26 06:59:58;;;;;;;13.95;12.50;;;;;;;22.70;59.56;101081.66;4916679;28;98387;-79
2021/06/26 07:02:24;;;;;;;14.88;12.05;;;;;;;22.91;59.38;101076.19;4916541;28;98353;-71
2021/06/26 07:04:50;;;;;;;15.63;12.10;;;;;;;22.89;59.60;101078.47;4898049;28;126815;-71
2021/06/26 07:07:16;;;;;;;13.50;12.02;;;;;;;22.74;59.87;101079.84;4915337;28;101992;-71
2021/06/26 07:09:42;;;;;;;14.25;12.23;;;;;;;22.71;58.63;101075.81;4898434;28;117237;-72
2021/06/26 07:12:09;;;;;;;15.10;13.02;;;;;;;22.59;58.90;101070.25;4915858;28;128036;-72
2021/06/26 07:14:35;;;;;;;15.05;12.55;;;;;;;22.83;58.79;101064.09;4898519;28;98194;-80
2021/06/26 07:17:01;;;;;;;14.32;12.00;;;;;;;22.66;60.41;101070.53;4917475;28;98143;-72
2021/06/26 07:19:27;;;;;;;15.80;11.93;;;;;;;23.18;59.00;101072.88;4915080;28;98704;-80
2021/06/26 07:21:53;;;;;;;15.10;13.07;;;;;;;24.80;52.65;101057.75;4898421;28;98830;-72
2021/06/26 07:24:20;;;;;;;13.18;11.57;;;;;;;25.67;49.43;101072.75;4920327;28;127729;-80
2021/06/26 07:26:46;;;;;;;12.02;10.82;;;;;;;26.53;47.19;101058.28;4922406;28;111696;-79
2021/06/26 07:29:12;;;;;;;12.40;11.13;;;;;;;25.59;48.26;101060.75;4903536;28;129211;-72
2021/06/26 07:31:38;;;;;;;14.10;10.38;;;;;;;25.78;50.51;101062.81;4920901;28;106091;-81
2021/06/26 07:34:04;;;;;;;13.07;10.40;;;;;;;26.08;46.95;101051.31;4919917;28;127819;-81
2021/06/26 07:36:30;;;;;;;10.95;9.23;;;;;;;25.98;49.05;101057.38;4924183;28;98014;-72
2021/06/26 07:38:56;;;;;;;11.27;10.23;;;;;;;25.48;47.86;101054.13;4920026;28;114609;-72
2021/06/26 07:41:22;;;;;;;12.07;10.63;;;;;;;25.91;48.88;101038.69;4921076;28;104984;-81
2021/06/26 07:43:49;;;;;;;12.18;10.52;;;;;;;27.04;45.71;101041.53;4885233;28;98431;-82
2021/06/26 07:46:16;;;;;;;11.85;10.65;;;;;;;27.08;46.39;101045.22;4902173;28;105115;-81
2021/06/26 07:48:42;;;;;;;11.60;10.35;;;;;;;27.95;42.21;101040.06;4923310;28;99173;-81
2021/06/26 07:51:08;;;;;;;10.27;8.60;;;;;;;28.64;40.20;101046.19;4920573;28;128041;-73
2021/06/26 07:53:34;;;;;;;9.88;8.88;;;;;;;29.24;38.77;101032.28;4883305;28;127333;-73
2021/06/26 07:56:00;;;;;;;10.27;9.27;;;;;;;29.72;39.24;101037.91;4922062;28;121635;-82
2021/06/26 07:58:28;;;;;;;11.75;10.02;;;;;;;28.01;41.67;101041.31;4919730;28;128174;-82
2021/06/26 08:00:55;;;;;;;10.77;9.68;;;;;;;30.24;38.64;101026.78;4904475;28;116138;-82
2021/06/26 08:03:22;;;;;;;8.88;7.93;;;;;;;29.76;39.32;101024.03;4921104;28;98050;-73
2021/06/26 08:05:48;;;;;;;8.85;7.95;;;;;;;30.88;36.08;101027.09;4904276;28;98386;-82
2021/06/26 08:08:14;;;;;;;9.30;8.40;;;;;;;31.07;34.86;101022.38;4904948;28;98490;-82
2021/06/26 08:10:42;;;;;;;8.02;7.15;;;;;;;31.85;34.19;101022.47;4919841;28;98885;-74
2021/06/26 08:13:08;;;;;;;8.70;7.57;;;;;;;31.97;33.35;101015.69;4920650;28;99069;-74
2021/06/26 08:15:37;;;;;;;8.40;7.47;;;;;;;31.65;32.80;101019.28;4920247;28;97932;-83
2021/06/26 08:18:05;;;;;;;7.88;7.00;;;;;;;31.06;34.50;101010.44;4921162;28;97901;-82
2021/06/26 08:20:31;;;;;;;6.88;6.10;;;;;;;33.22;31.86;101004.06;4920560;28;98485;-74
2021/06/26 08:22:58;;;;;;;9.80;8.82;;;;;;;33.79;29.24;101014.78;4919223;28;127232;-75
2021/06/26 08:25:24;;;;;;;8.98;8.07;;;;;;;34.53;29.05;101011.63;4919564;28;123814;-74
2021/06/26 08:27:51;;;;;;;8.82;7.93;;;;;;;33.65;29.07;100998.16;4903644;28;118194;-82
2021/06/26 08:30:17;;;;;;;7.72;6.93;;;;;;;32.57;31.94;100995.22;4920317;28;100913;-74
2021/06/26 08:32:43;;;;;;;7.10;6.50;;;;;;;33.52;30.92;100997.06;4920372;28;111403;-81
2021/06/26 08:35:10;;;;;;;7.65;6.07;;;;;;;31.41;33.85;100990.25;4914743;28;104599;-75
2021/06/26 08:37:37;;;;;;;6.97;6.30;;;;;;;30.75;33.52;100987.72;4900461;28;98612;-75
2021/06/26 08:40:04;;;;;;;7.65;6.28;;;;;;;30.09;35.53;100992.50;4919589;28;98242;-80
2021/06/26 08:42:30;;;;;;;8.82;5.07;;;;;;;32.64;31.71;100980.44;4915516;28;111484;-75
2021/06/26 08:45:00;;;;;;;5.90;5.40;;;;;;;30.04;35.50;100987.31;4916399;28;119856;-76
2021/06/26 08:47:26;;;;;;;5.93;5.32;;;;;;;29.19;35.80;100987.41;4900789;28;98776;-81
2021/06/26 08:49:53;;;;;;;7.97;6.75;;;;;;;28.60;38.39;100990.69;4918757;28;98276;-81
2021/06/26 08:52:19;;;;;;;8.02;6.85;;;;;;;27.33;40.70;100982.84;4879795;28;98182;-81
2021/06/26 08:54:48;;;;;;;7.55;6.90;;;;;;;26.35;43.89;100981.28;4880700;28;122314;-81
2021/06/26 08:57:24;;;;;;;8.23;7.05;;;;;;;25.67;46.06;100976.97;4899760;28;115844;-81
2021/06/26 08:59:50;;;;;;;9.00;8.10;;;;;;;25.17;46.40;100981.22;4868379;28;115053;-81
2021/06/26 09:02:22;;;;;;;8.43;7.60;;;;;;;24.74;48.04;100990.25;4895107;28;126858;-81
2021/06/26 09:04:49;;;;;;;8.52;7.25;;;;;;;24.54;48.61;100986.53;4897610;28;98161;-76
2021/06/26 09:07:25;;;;;;;8.50;7.50;;;;;;;24.46;49.49;100985.50;4931028;28;111391;-76
2021/06/26 09:09:51;;;;;;;8.18;7.38;;;;;;;24.24;49.43;100997.81;4899557;28;98945;-75
2021/06/26 09:12:19;;;;;;;8.10;7.30;;;;;;;24.03;50.16;100996.34;4916962;28;98085;-75
2021/06/26 09:14:45;;;;;;;7.95;7.25;;;;;;;23.84;50.35;100997.72;4916734;28;97931;-75
2021/06/26 09:17:12;;;;;;;9.93;7.85;;;;;;;23.80;50.24;100996.03;4915802;28;99070;-80
2021/06/26 09:19:39;;;;;;;7.97;7.18;;;;;;;23.68;50.68;100996.81;4881407;28;98036;-81
2021/06/26 09:22:09;;;;;;;7.47;6.78;;;;;;;23.59;49.02;101002.41;4916433;28;98145;-76
2021/06/26 09:24:45;;;;;;;8.48;7.28;;;;;;;23.59;49.45;100996.09;4884263;28;98044;-81
2021/06/26 09:27:13;;;;;;;7.80;7.10;;;;;;;23.34;52.13;101001.53;4900224;28;97882;-76
2021/06/26 09:29:55;;;;;;;8.57;7.47;;;;;;;23.40;50.55;100997.44;4899217;28;111370;-76
2021/06/26 09:32:29;;;;;;;8.50;7.60;;;;;;;23.31;51.56;100996.75;4875341;28;97977;-76
2021/06/26 09:34:56;;;;;;;7.50;6.80;;;;;;;23.34;52.15;100992.50;4884708;28;97888;-81
2021/06/26 09:37:27;;;;;;;8.68;7.82;;;;;;;23.38;52.51;100998.91;4877212;28;101400;-81
2021/06/26 09:39:58;;;;;;;8.77;7.93;;;;;;;23.72;50.44;100989.47;4882955;28;99002;-77
2021/06/26 09:42:33;;;;;;;9.20;8.30;;;;;;;25.62;48.13;100982.75;4874740;28;100140;-76
2021/06/26 09:45:01;;;;;;;9.57;8.68;;;;;;;29.02;38.02;100988.84;4890193;28;98212;-80
2021/06/26 09:47:42;;;;;;;8.93;8.02;;;;;;;29.90;38.22;101003.88;4896916;28;116443;-76
2021/06/26 09:50:19;;;;;;;8.52;7.70;;;;;;;31.89;34.16;101000.97;4916697;28;98888;-83
2021/06/26 09:52:49;;;;;;;8.68;7.85;;;;;;;32.65;30.15;101007.94;4876814;28;100247;-78
2021/06/26 09:55:27;;;;;;;8.07;6.50;;;;;;;32.51;30.86;100994.06;4883989;28;101720;-76
2021/06/26 09:57:58;;;;;;;7.25;6.65;;;;;;;33.10;28.78;100996.97;4899141;28;99705;-83
2021/06/26 10:00:26;;;;;;;6.93;6.32;;;;;;;34.19;28.08;100987.22;4884253;28;98439;-82
2021/06/26 10:02:53;;;;;;;6.97;6.38;;;;;;;33.72;28.86;100987.72;4878165;28;98330;-82
2021/06/26 10:05:19;;;;;;;6.30;5.80;;;;;;;33.37;29.46;100983.19;4900145;28;98776;-82
2021/06/26 10:07:48;;;;;;;7.30;6.70;;;;;;;31.16;30.78;100975.47;4883341;28;100664;-75
2021/06/26 10:10:16;;;;;;;6.53;5.85;;;;;;;31.05;32.87;100978.25;4899760;28;99015;-76
2021/06/26 10:12:43;;;;;;;7.45;6.68;;;;;;;27.80;38.22;100973.38;4873790;28;99107;-76
2021/06/26 10:15:11;;;;;;;7.30;6.70;;;;;;;27.63;39.53;100969.13;4879176;28;103070;-82
2021/06/26 10:17:37;;;;;;;6.80;6.22;;;;;;;26.38;42.10;100966.75;4888572;28;98175;-76
2021/06/26 10:20:06;;;;;;;8.20;6.75;;;;;;;26.19;41.69;100964.75;4883396;28;111411;-81
2021/06/26 10:22:40;;;;;;;7.72;6.50;;;;;;;25.75;43.27;100969.66;4899763;28;99277;-81
2021/06/26 10:25:07;;;;;;;7.28;6.55;;;;;;;25.37;44.34;100973.84;4863079;28;98215;-77
2021/06/26 10:27:34;;;;;;;6.90;6.30;;;;;;;24.93;46.19;100975.81;4899172;28;112167;-79
2021/06/26 10:30:19;;;;;;;7.63;6.03;;;;;;;24.51;47.99;100978.16;4879870;28;103862;-80
2021/06/26 10:32:56;;;;;;;6.97;6.38;;;;;;;24.58;47.29;100981.91;4892580;28;98796;-77
2021/06/26 10:35:27;;;;;;;7.38;6.68;;;;;;;24.35;46.35;100984.38;4884687;28;98100;-77
2021/06/26 10:38:10;;;;;;;7.30;6.60;;;;;;;24.20;47.85;100985.88;4882305;28;99205;-77
2021/06/26 10:40:56;;;;;;;7.00;6.40;;;;;;;23.42;50.38;100986.09;4881743;28;100790;-78
2021/06/26 10:43:30;;;;;;;8.20;6.53;;;;;;;23.84;50.17;100983.19;4863323;28;101689;-81
2021/06/26 10:46:10;;;;;;;7.07;6.30;;;;;;;23.91;49.90;100984.22;4899272;28;106553;-79
2021/06/26 10:48:38;;;;;;;7.10;6.40;;;;;;;23.53;51.04;100988.06;4896241;28;100717;-78
2021/06/26 10:51:04;;;;;;;6.78;6.20;;;;;;;23.94;50.46;100979.97;4879747;28;100341;-81
2021/06/26 10:53:34;;;;;;;7.50;6.50;;;;;;;24.29;49.41;100974.75;4896276;28;98163;-79
2021/06/26 10:56:12;;;;;;;6.35;5.75;;;;;;;24.80;49.16;100975.06;4881830;28;97967;-80
2021/06/26 10:58:43;;;;;;;6.68;6.07;;;;;;;24.93;48.70;100981.31;4883283;28;100832;-81
2021/06/26 11:01:17;;;;;;;7.78;6.50;;;;;;;25.08;47.11;100969.53;4880051;28;101179;-81
2021/06/26 11:03:43;;;;;;;7.65;6.25;;;;;;;25.33;46.80;100963.88;4898117;28;97950;-79
2021/06/26 11:06:26;;;;;;;7.15;6.47;;;;;;;25.43;46.30;100977.16;4883176;28;98215;-82
2021/06/26 11:09:09;;;;;;;8.98;7.10;;;;;;;24.59;47.06;100982.72;4882004;28;99792;-78